createdAt,value
2023-04-06T00:02:59.881Z,9.43
2023-04-06T00:08:01.479Z,8.57
2023-04-06T00:13:04.349Z,8.95
2023-04-06T00:18:05.937Z,8.25
2023-04-06T00:23:07.585Z,9.13
2023-04-06T00:28:10.640Z,8.82
2023-04-06T00:33:12.165Z,8.57
2023-04-06T00:38:13.832Z,8.75
2023-04-06T00:43:16.748Z,9.10
2023-04-06T00:48:18.302Z,8.85
2023-04-06T00:53:19.807Z,8.68
2023-04-06T00:58:22.807Z,9.38
2023-04-06T01:03:24.390Z,9.95
2023-04-06T01:08:26.078Z,9.13
2023-04-06T01:13:28.937Z,8.73
2023-04-06T01:18:30.793Z,9.45
2023-04-06T01:23:33.645Z,10.07
2023-04-06T01:28:35.167Z,10.07
2023-04-06T01:33:36.918Z,9.45
2023-04-06T01:38:39.770Z,9.20
2023-04-06T01:43:41.537Z,9.07
2023-04-06T01:48:43.307Z,8.95
2023-04-06T01:53:46.192Z,10.13
2023-04-06T01:58:47.663Z,9.50
2023-04-06T02:03:49.164Z,9.60
2023-04-06T02:08:51.961Z,9.18
2023-04-06T02:13:53.399Z,9.82
2023-04-06T02:18:54.853Z,10.30
2023-04-06T02:23:57.704Z,9.85
2023-04-06T02:28:59.220Z,9.48
2023-04-06T02:34:00.660Z,9.05
2023-04-06T02:39:03.637Z,8.85
2023-04-06T02:44:06.741Z,9.88
2023-04-06T02:49:08.743Z,10.23
2023-04-06T02:54:11.793Z,10.20
2023-04-06T02:59:13.434Z,9.18
2023-04-06T03:04:14.939Z,9.77
2023-04-06T03:09:17.848Z,9.85
2023-04-06T03:14:19.324Z,9.73
2023-04-06T03:19:20.796Z,10.93
2023-04-06T03:24:23.812Z,10.55
2023-04-06T03:29:25.320Z,10.52
2023-04-06T03:34:26.825Z,10.45
2023-04-06T03:39:29.619Z,10.30
2023-04-06T03:44:31.088Z,10.55
2023-04-06T03:49:32.567Z,9.75
2023-04-06T03:54:35.373Z,9.90
2023-04-06T03:59:37.028Z,9.88
2023-04-06T04:04:39.044Z,10.38
2023-04-06T04:09:41.965Z,10.52
2023-04-06T04:14:43.418Z,10.40
2023-04-06T04:19:44.915Z,10.10
2023-04-06T04:24:47.745Z,13.20
2023-04-06T04:29:49.236Z,15.15
2023-04-06T04:34:50.810Z,20.33
2023-04-06T04:39:53.700Z,13.98
2023-04-06T04:44:55.133Z,17.38
2023-04-06T04:49:56.623Z,12.13
2023-04-06T04:54:59.498Z,43.50
2023-04-06T05:00:01.040Z,16.17
2023-04-06T05:05:02.647Z,11.70
2023-04-06T05:10:06.526Z,12.57
2023-04-06T05:15:09.746Z,13.85
2023-04-06T05:20:11.997Z,16.33
2023-04-06T05:25:15.457Z,10.80
2023-04-06T05:30:17.023Z,9.13
2023-04-06T05:35:18.481Z,19.05
2023-04-06T05:40:21.404Z,10.88
2023-04-06T05:45:22.893Z,11.15
2023-04-06T05:50:24.431Z,10.77
2023-04-06T05:55:27.322Z,11.13
2023-04-06T06:00:28.890Z,10.50
2023-04-06T06:05:30.579Z,10.90
2023-04-06T06:10:33.492Z,11.00
2023-04-06T06:15:34.932Z,10.90
2023-04-06T06:20:36.532Z,11.05
2023-04-06T06:25:40.166Z,10.93
2023-04-06T06:30:41.614Z,10.20
2023-04-06T06:35:43.181Z,18.65
2023-04-06T06:40:46.993Z,16.42
2023-04-06T06:45:48.658Z,22.50
2023-04-06T06:50:50.264Z,12.55
2023-04-06T06:55:53.178Z,11.05
2023-04-06T07:00:57.055Z,11.60
2023-04-06T07:05:58.630Z,11.18
2023-04-06T07:11:01.525Z,11.80
2023-04-06T07:16:03.293Z,10.68
2023-04-06T07:21:05.426Z,11.20
2023-04-06T07:26:08.261Z,10.60
2023-04-06T07:31:10.173Z,10.90
2023-04-06T07:36:11.650Z,10.93
2023-04-06T07:41:14.565Z,11.10
2023-04-06T07:46:17.185Z,10.68
2023-04-06T07:51:18.809Z,11.15
2023-04-06T07:56:21.922Z,10.95
2023-04-06T08:01:23.592Z,11.52
2023-04-06T08:06:25.208Z,11.73
2023-04-06T08:11:28.006Z,11.82
2023-04-06T08:16:29.481Z,11.18
2023-04-06T08:21:30.983Z,11.45
2023-04-06T08:26:33.774Z,11.57
2023-04-06T08:31:35.543Z,11.70
2023-04-06T08:36:37.104Z,11.00
2023-04-06T08:41:42.467Z,10.55
2023-04-06T08:46:43.996Z,10.48
2023-04-06T08:51:45.569Z,10.38
2023-04-06T08:56:49.243Z,10.15
2023-04-06T09:01:53.906Z,10.95
2023-04-06T09:06:55.481Z,9.70
2023-04-06T09:11:58.322Z,10.73
2023-04-06T09:16:59.802Z,9.20
2023-04-06T09:22:04.923Z,10.50
2023-04-06T09:27:07.720Z,10.30
2023-04-06T09:32:10.541Z,9.70
2023-04-06T09:37:16.207Z,10.60
2023-04-06T09:42:26.385Z,11.13
2023-04-06T09:47:29.728Z,9.95
2023-04-06T09:52:33.768Z,9.00
2023-04-06T09:57:46.361Z,7.88
2023-04-06T10:02:53.166Z,6.47
2023-04-06T10:08:00.799Z,7.33
2023-04-06T10:13:05.577Z,8.10
2023-04-06T10:18:07.467Z,7.53
2023-04-06T10:23:12.951Z,8.77
2023-04-06T10:28:15.759Z,8.10
2023-04-06T10:33:18.719Z,7.35
2023-04-06T10:38:20.439Z,7.68
2023-04-06T10:43:24.273Z,7.97
2023-04-06T10:48:25.900Z,8.23
2023-04-06T10:53:28.620Z,8.30
2023-04-06T10:58:31.581Z,7.82
2023-04-06T11:03:43.001Z,5.13
2023-04-06T11:08:44.533Z,9.57
2023-04-06T11:13:50.970Z,7.30
2023-04-06T11:18:55.056Z,7.20
2023-04-06T11:24:05.311Z,7.40
2023-04-06T11:29:08.479Z,8.23
2023-04-06T11:34:13.802Z,7.50
2023-04-06T11:39:20.749Z,8.20
2023-04-06T11:44:33.222Z,8.27
2023-04-06T11:49:38.036Z,8.23
2023-04-06T11:54:39.548Z,7.80
2023-04-06T11:59:42.493Z,8.05
2023-04-06T12:04:44.199Z,8.00
2023-04-06T12:09:45.778Z,8.57
2023-04-06T12:14:48.606Z,8.80
2023-04-06T12:19:50.189Z,7.38
2023-04-06T12:24:51.620Z,7.20
2023-04-06T12:29:54.440Z,7.95
2023-04-06T12:34:55.965Z,7.28
2023-04-06T12:39:57.419Z,7.35
2023-04-06T12:45:00.265Z,8.00
2023-04-06T12:50:02.152Z,7.05
2023-04-06T12:55:04.724Z,7.50
2023-04-06T13:00:09.527Z,7.50
2023-04-06T13:05:11.504Z,7.35
2023-04-06T13:10:13.027Z,7.05
2023-04-06T13:15:16.183Z,7.95
2023-04-06T13:20:18.181Z,7.45
2023-04-06T13:25:19.700Z,7.55
2023-04-06T13:30:22.977Z,8.40
2023-04-06T13:35:24.455Z,7.43
2023-04-06T13:40:25.974Z,7.10
2023-04-06T13:45:28.925Z,6.95
2023-04-06T13:50:30.541Z,7.20
2023-04-06T13:55:32.119Z,7.55
2023-04-06T14:00:35.209Z,7.40
2023-04-06T14:05:36.789Z,7.60
2023-04-06T14:10:38.868Z,7.20
2023-04-06T14:15:41.666Z,7.32
2023-04-06T14:20:43.222Z,7.13
2023-04-06T14:25:44.804Z,7.68
2023-04-06T14:30:49.109Z,7.18
2023-04-06T14:35:50.555Z,7.63
2023-04-06T14:40:52.020Z,7.13
2023-04-06T14:45:54.931Z,7.10
2023-04-06T14:50:57.177Z,7.55
2023-04-06T14:55:58.667Z,7.10
2023-04-06T15:01:02.858Z,6.72
2023-04-06T15:06:04.677Z,7.47
2023-04-06T15:11:06.208Z,6.53
2023-04-06T15:16:09.300Z,7.05
2023-04-06T15:21:10.778Z,7.20
2023-04-06T15:26:12.847Z,6.65
2023-04-06T15:31:24.446Z,7.45
2023-04-06T15:36:37.983Z,7.45
2023-04-06T15:41:39.457Z,6.70
2023-04-06T15:46:42.256Z,6.53
2023-04-06T15:51:43.739Z,6.80
2023-04-06T15:56:45.568Z,6.70
2023-04-06T16:01:48.822Z,7.40
2023-04-06T16:06:50.464Z,6.60
2023-04-06T16:11:51.977Z,7.20
2023-04-06T16:16:54.956Z,8.57
2023-04-06T16:21:56.415Z,8.45
2023-04-06T16:26:58.003Z,6.78
2023-04-06T16:32:00.916Z,7.47
2023-04-06T16:37:02.656Z,7.00
2023-04-06T16:42:04.725Z,6.65
2023-04-06T16:47:07.638Z,7.53
2023-04-06T16:52:09.388Z,7.00
2023-04-06T16:57:11.371Z,6.20
2023-04-06T17:02:15.045Z,4.80
2023-04-06T17:07:16.581Z,5.32
2023-04-06T17:12:18.128Z,5.18
2023-04-06T17:17:21.100Z,5.13
2023-04-06T17:22:22.600Z,5.15
2023-04-06T17:27:24.084Z,4.97
2023-04-06T17:32:26.921Z,4.53
2023-04-06T17:37:28.684Z,4.95
2023-04-06T17:42:30.206Z,4.50
2023-04-06T17:47:33.150Z,4.50
2023-04-06T17:52:34.731Z,4.53
2023-04-06T17:57:37.181Z,4.60
2023-04-06T18:02:43.033Z,4.80
2023-04-06T18:07:44.854Z,4.53
2023-04-06T18:12:46.806Z,4.10
2023-04-06T18:17:50.446Z,3.88
2023-04-06T18:22:52.032Z,4.28
2023-04-06T18:27:53.510Z,3.70
2023-04-06T18:32:56.504Z,4.25
2023-04-06T18:37:58.114Z,4.13
2023-04-06T18:42:59.989Z,4.05
2023-04-06T18:48:02.914Z,3.90
2023-04-06T18:53:04.522Z,3.83
2023-04-06T18:58:06.029Z,3.65
2023-04-06T19:03:09.178Z,3.85
2023-04-06T19:08:12.276Z,3.42
2023-04-06T19:13:13.827Z,4.18
2023-04-06T19:18:16.763Z,3.30
2023-04-06T19:23:18.371Z,3.80
2023-04-06T19:28:19.867Z,3.88
2023-04-06T19:33:22.678Z,3.80
2023-04-06T19:38:24.299Z,3.50
2023-04-06T19:43:26.493Z,2.97
2023-04-06T19:48:29.400Z,3.92
2023-04-06T19:53:31.406Z,4.47
2023-04-06T19:58:33.412Z,3.42
2023-04-06T20:03:36.494Z,4.15
2023-04-06T20:08:38.102Z,4.15
2023-04-06T20:13:39.680Z,4.70
2023-04-06T20:18:42.586Z,4.63
2023-04-06T20:23:44.157Z,4.38
2023-04-06T20:28:45.793Z,5.57
2023-04-06T20:33:48.594Z,6.03
2023-04-06T20:38:50.194Z,6.30
2023-04-06T20:43:51.743Z,7.22
2023-04-06T20:48:54.706Z,6.20
2023-04-06T20:53:56.388Z,6.50
2023-04-06T20:58:58.026Z,5.45
2023-04-06T21:04:03.370Z,4.35
2023-04-06T21:09:05.628Z,3.80
2023-04-06T21:14:07.253Z,3.15
2023-04-06T21:19:10.138Z,2.70
2023-04-06T21:24:11.731Z,2.90
2023-04-06T21:29:13.220Z,4.20
2023-04-06T21:34:16.466Z,2.80
2023-04-06T21:39:18.390Z,2.55
2023-04-06T21:44:20.305Z,2.63
2023-04-06T21:49:23.519Z,2.70
2023-04-06T21:54:25.103Z,3.05
2023-04-06T21:59:26.630Z,2.33
2023-04-06T22:04:30.717Z,3.00
2023-04-06T22:09:32.418Z,2.33
2023-04-06T22:14:33.922Z,2.65
2023-04-06T22:19:36.765Z,2.40
2023-04-06T22:24:38.369Z,2.60
2023-04-06T22:29:39.880Z,3.00
2023-04-06T22:34:42.805Z,2.90
2023-04-06T22:39:44.329Z,2.92
2023-04-06T22:44:45.837Z,2.95
2023-04-06T22:49:48.760Z,2.45
2023-04-06T22:54:50.280Z,3.20
2023-04-06T22:59:52.264Z,3.00
2023-04-06T23:04:55.188Z,3.05
2023-04-06T23:09:56.708Z,2.95
2023-04-06T23:20:01.207Z,3.50
2023-04-06T23:25:02.806Z,4.38
2023-04-06T23:30:05.241Z,3.88
2023-04-06T23:35:09.024Z,3.60
2023-04-06T23:40:11.059Z,4.03
2023-04-06T23:45:12.598Z,4.85
2023-04-06T23:50:15.454Z,6.55
2023-04-06T23:55:17.272Z,6.90
